createdAt,value
2022-10-22T00:01:24.720Z,20.27
2022-10-22T00:04:29.161Z,19.50
2022-10-22T00:07:33.738Z,22.20
2022-10-22T00:10:38.492Z,22.80
2022-10-22T00:13:41.028Z,19.30
2022-10-22T00:16:43.879Z,22.97
2022-10-22T00:19:45.981Z,21.48
2022-10-22T00:22:48.784Z,23.45
2022-10-22T00:25:50.887Z,22.27
2022-10-22T00:28:53.557Z,21.60
2022-10-22T00:35:03.098Z,20.90
2022-10-22T00:38:05.365Z,25.48
2022-10-22T00:41:07.394Z,23.55
2022-10-22T00:44:48.097Z,24.27
2022-10-22T00:47:57.834Z,23.50
2022-10-22T00:51:04.178Z,20.55
2022-10-22T00:54:08.561Z,21.63
2022-10-22T00:57:11.315Z,22.37
2022-10-22T01:00:13.786Z,22.40
2022-10-22T01:03:16.004Z,22.05
2022-10-22T01:06:33.264Z,19.53
2022-10-22T01:09:45.126Z,21.85
2022-10-22T01:12:46.959Z,21.73
2022-10-22T01:16:07.390Z,17.85
2022-10-22T01:19:48.488Z,23.45
2022-10-22T01:23:09.058Z,20.37
2022-10-22T01:29:43.778Z,17.57
2022-10-22T01:32:50.086Z,20.23
2022-10-22T01:35:53.186Z,22.80
2022-10-22T01:38:56.755Z,23.20
2022-10-22T01:41:58.929Z,20.43
2022-10-22T01:45:00.851Z,20.40
2022-10-22T01:48:45.199Z,22.17
2022-10-22T01:52:02.896Z,21.33
2022-10-22T01:55:24.536Z,24.37
2022-10-22T01:58:40.819Z,23.63
2022-10-22T02:02:07.540Z,24.83
2022-10-22T02:05:22.112Z,21.43
2022-10-22T02:08:30.959Z,22.27
2022-10-22T02:11:32.976Z,23.55
2022-10-22T02:14:38.391Z,25.13
2022-10-22T02:17:43.499Z,25.30
2022-10-22T02:20:45.757Z,21.73
2022-10-22T02:23:48.141Z,22.60
2022-10-22T02:27:05.478Z,21.88
2022-10-22T02:33:26.577Z,19.53
2022-10-22T02:36:29.040Z,21.53
2022-10-22T02:39:32.265Z,21.53
2022-10-22T02:42:36.669Z,21.67
2022-10-22T02:45:38.977Z,21.23
2022-10-22T02:48:40.969Z,20.83
2022-10-22T02:51:43.035Z,19.23
2022-10-22T02:54:44.918Z,23.63
2022-10-22T02:57:46.969Z,19.45
2022-10-22T03:00:49.330Z,19.73
2022-10-22T03:03:51.556Z,24.73
2022-10-22T03:06:53.539Z,23.23
2022-10-22T03:09:55.601Z,23.75
2022-10-22T03:12:57.593Z,23.92
2022-10-22T03:15:59.726Z,22.05
2022-10-22T03:19:02.002Z,22.65
2022-10-22T03:22:08.021Z,23.00
2022-10-22T03:25:16.403Z,25.23
2022-10-22T03:28:18.859Z,25.10
2022-10-22T03:31:20.773Z,25.08
2022-10-22T03:34:22.986Z,24.40
2022-10-22T03:37:26.618Z,23.50
2022-10-22T03:40:28.943Z,27.63
2022-10-22T03:43:30.953Z,24.27
2022-10-22T03:46:33.051Z,27.10
2022-10-22T03:49:34.955Z,27.98
2022-10-22T03:52:38.853Z,27.30
2022-10-22T03:55:41.681Z,28.37
2022-10-22T03:58:46.611Z,24.90
2022-10-22T04:01:48.551Z,29.33
2022-10-22T04:04:50.578Z,25.07
2022-10-22T04:07:52.556Z,25.00
2022-10-22T04:10:54.655Z,25.27
2022-10-22T04:13:56.548Z,23.75
2022-10-22T04:16:58.683Z,25.38
2022-10-22T04:20:00.621Z,24.90
2022-10-22T04:23:02.710Z,30.25
2022-10-22T04:26:07.375Z,26.73
2022-10-22T04:29:13.392Z,22.97
2022-10-22T04:32:17.933Z,25.43
2022-10-22T04:35:20.036Z,27.10
2022-10-22T04:38:21.944Z,24.60
2022-10-22T04:41:32.698Z,28.80
2022-10-22T04:44:34.809Z,25.47
2022-10-22T04:47:37.382Z,27.98
2022-10-22T04:50:39.499Z,29.77
2022-10-22T04:53:41.814Z,29.17
2022-10-22T04:56:43.830Z,33.28
2022-10-22T04:59:45.937Z,33.07
2022-10-22T05:02:51.119Z,34.27
2022-10-22T05:05:53.259Z,33.28
2022-10-22T05:09:00.994Z,33.92
2022-10-22T05:12:03.273Z,33.67
2022-10-22T05:15:05.549Z,38.90
2022-10-22T05:18:07.626Z,42.58
2022-10-22T05:21:15.447Z,39.85
2022-10-22T05:24:17.591Z,42.60
2022-10-22T05:27:22.257Z,45.90
2022-10-22T05:30:24.364Z,43.17
2022-10-22T05:33:27.881Z,40.60
2022-10-22T05:36:30.235Z,44.08
2022-10-22T05:39:32.217Z,37.97
2022-10-22T05:42:34.525Z,48.72
2022-10-22T05:45:38.122Z,43.67
2022-10-22T05:48:40.926Z,36.33
2022-10-22T05:51:42.953Z,42.97
2022-10-22T05:54:45.079Z,40.63
2022-10-22T05:57:49.196Z,44.90
2022-10-22T06:00:51.333Z,43.15
2022-10-22T06:03:59.040Z,42.53
2022-10-22T06:07:02.237Z,42.22
2022-10-22T06:10:04.434Z,42.13
2022-10-22T06:13:08.157Z,37.33
2022-10-22T06:16:10.100Z,38.30
2022-10-22T06:19:13.878Z,40.67
2022-10-22T06:22:15.868Z,37.63
2022-10-22T06:25:18.014Z,39.72
2022-10-22T06:28:19.980Z,41.03
2022-10-22T06:31:22.384Z,41.15
2022-10-22T06:34:24.417Z,38.17
2022-10-22T06:37:26.565Z,43.55
2022-10-22T06:40:28.531Z,42.08
2022-10-22T06:43:30.729Z,43.90
2022-10-22T06:46:32.755Z,41.13
2022-10-22T06:49:35.879Z,43.95
2022-10-22T06:52:37.778Z,46.80
2022-10-22T06:55:42.023Z,46.53
2022-10-22T06:58:50.760Z,48.95
2022-10-22T07:01:52.907Z,45.20
2022-10-22T07:04:54.964Z,48.97
2022-10-22T07:07:57.298Z,47.80
2022-10-22T07:11:10.390Z,53.35
2022-10-22T07:14:13.865Z,47.70
2022-10-22T07:17:15.908Z,48.25
2022-10-22T07:20:24.112Z,44.33
2022-10-22T07:23:26.326Z,43.40
2022-10-22T07:26:32.835Z,37.53
2022-10-22T07:29:34.896Z,41.05
2022-10-22T07:32:37.210Z,36.78
2022-10-22T07:35:40.551Z,35.75
2022-10-22T07:38:42.715Z,39.83
2022-10-22T07:41:44.611Z,35.17
2022-10-22T07:44:46.729Z,32.13
2022-10-22T07:47:49.535Z,28.88
2022-10-22T07:50:52.221Z,36.72
2022-10-22T07:53:54.177Z,31.02
2022-10-22T07:56:56.356Z,32.28
2022-10-22T07:59:58.615Z,39.20
2022-10-22T08:03:00.769Z,36.70
2022-10-22T08:06:03.104Z,29.50
2022-10-22T08:09:07.257Z,24.20
2022-10-22T08:12:10.059Z,28.35
2022-10-22T08:15:12.183Z,29.13
2022-10-22T08:18:14.541Z,25.67
2022-10-22T08:21:17.397Z,27.10
2022-10-22T08:24:19.281Z,25.73
2022-10-22T08:27:21.365Z,30.02
2022-10-22T08:30:23.633Z,27.63
2022-10-22T08:33:25.887Z,33.70
2022-10-22T08:36:28.236Z,26.90
2022-10-22T08:39:30.558Z,25.88
2022-10-22T08:42:51.448Z,30.83
2022-10-22T08:46:13.829Z,24.45
2022-10-22T08:49:36.061Z,25.60
2022-10-22T08:52:49.173Z,29.73
2022-10-22T08:55:53.831Z,24.30
2022-10-22T08:59:16.840Z,26.55
2022-10-22T09:02:56.320Z,26.90
2022-10-22T09:06:03.395Z,23.50
2022-10-22T09:09:12.827Z,23.80
2022-10-22T09:12:20.152Z,24.15
2022-10-22T09:15:23.652Z,22.58
2022-10-22T09:18:51.974Z,19.50
2022-10-22T09:22:01.172Z,20.95
2022-10-22T09:25:25.798Z,20.67
2022-10-22T09:28:27.793Z,24.60
2022-10-22T09:31:35.630Z,19.67
2022-10-22T09:34:38.040Z,21.85
2022-10-22T09:37:50.065Z,20.85
2022-10-22T09:40:54.418Z,22.25
2022-10-22T09:43:57.355Z,21.48
2022-10-22T09:47:00.080Z,24.58
2022-10-22T09:50:28.033Z,21.48
2022-10-22T09:53:51.309Z,23.60
2022-10-22T09:57:13.162Z,21.00
2022-10-22T10:00:20.027Z,21.52
2022-10-22T10:03:25.878Z,25.25
2022-10-22T10:06:33.530Z,24.48
2022-10-22T10:09:36.037Z,24.15
2022-10-22T10:12:52.580Z,25.65
2022-10-22T10:16:00.676Z,26.08
2022-10-22T10:19:26.617Z,23.40
2022-10-22T10:22:28.744Z,26.48
2022-10-22T10:25:55.479Z,29.38
2022-10-22T10:29:12.045Z,26.98
2022-10-22T10:32:42.097Z,25.35
2022-10-22T10:35:58.655Z,28.52
2022-10-22T10:39:07.570Z,27.58
2022-10-22T10:42:44.466Z,26.73
2022-10-22T10:46:10.772Z,26.27
2022-10-22T10:49:27.113Z,28.77
2022-10-22T10:53:05.257Z,24.88
2022-10-22T10:56:34.458Z,24.45
2022-10-22T10:59:47.731Z,22.90
2022-10-22T11:03:14.456Z,24.85
2022-10-22T11:06:24.659Z,26.83
2022-10-22T11:09:34.350Z,25.58
2022-10-22T11:12:45.646Z,28.33
2022-10-22T11:15:56.777Z,27.52
2022-10-22T11:19:22.538Z,28.45
2022-10-22T11:23:18.041Z,26.13
2022-10-22T11:26:41.287Z,27.88
2022-10-22T11:29:50.569Z,25.60
2022-10-22T11:32:58.631Z,25.75
2022-10-22T11:36:04.115Z,25.20
2022-10-22T11:39:06.120Z,26.48
2022-10-22T11:42:12.660Z,23.90
2022-10-22T11:45:14.553Z,23.17
2022-10-22T11:48:18.947Z,21.48
2022-10-22T11:51:38.754Z,22.38
2022-10-22T11:54:44.868Z,24.30
2022-10-22T11:57:48.291Z,24.90
2022-10-22T12:00:50.522Z,21.90
2022-10-22T12:03:53.721Z,25.60
2022-10-22T12:07:01.405Z,28.50
2022-10-22T12:10:19.402Z,26.08
2022-10-22T12:13:30.858Z,25.50
2022-10-22T12:16:54.715Z,27.08
2022-10-22T12:20:02.057Z,26.70
2022-10-22T12:23:05.444Z,24.33
2022-10-22T12:26:32.080Z,25.98
2022-10-22T12:29:34.025Z,29.88
2022-10-22T12:32:41.204Z,27.60
2022-10-22T12:35:45.906Z,23.42
2022-10-22T12:38:48.361Z,23.35
2022-10-22T12:41:52.045Z,26.15
2022-10-22T12:44:57.095Z,23.15
2022-10-22T12:48:14.483Z,28.10
2022-10-22T12:51:21.830Z,28.95
2022-10-22T12:54:28.247Z,25.80
2022-10-22T12:57:30.436Z,25.08
2022-10-22T13:00:35.043Z,25.80
2022-10-22T13:03:51.596Z,26.83
2022-10-22T13:07:25.814Z,28.15
2022-10-22T13:10:36.656Z,25.25
2022-10-22T13:13:45.631Z,27.23
2022-10-22T13:17:41.848Z,25.27
2022-10-22T13:21:21.987Z,24.13
2022-10-22T13:24:24.860Z,22.92
2022-10-22T13:27:28.574Z,22.35
2022-10-22T13:30:34.115Z,22.77
2022-10-22T13:33:40.285Z,21.33
2022-10-22T13:36:42.566Z,22.17
2022-10-22T13:39:44.771Z,21.27
2022-10-22T13:42:47.151Z,20.85
2022-10-22T13:45:55.598Z,20.55
2022-10-22T13:48:59.909Z,21.85
2022-10-22T13:52:02.016Z,21.92
2022-10-22T13:55:31.098Z,21.20
2022-10-22T13:58:33.062Z,24.48
2022-10-22T14:01:37.184Z,21.25
2022-10-22T14:04:41.524Z,18.70
2022-10-22T14:07:44.306Z,18.73
2022-10-22T14:10:46.509Z,19.73
2022-10-22T14:13:48.598Z,17.80
2022-10-22T14:16:50.539Z,18.25
2022-10-22T14:19:52.691Z,18.58
2022-10-22T14:22:55.461Z,18.52
2022-10-22T14:26:01.155Z,18.88
2022-10-22T14:29:11.048Z,21.92
2022-10-22T14:32:23.232Z,18.40
2022-10-22T14:35:25.306Z,16.33
2022-10-22T14:38:28.513Z,19.52
2022-10-22T14:41:30.822Z,19.23
2022-10-22T14:44:32.903Z,17.27
2022-10-22T14:47:35.166Z,20.08
2022-10-22T14:50:37.430Z,18.38
2022-10-22T14:53:40.593Z,19.92
2022-10-22T14:56:42.696Z,17.35
2022-10-22T14:59:44.600Z,19.48
2022-10-22T15:02:47.789Z,18.08
2022-10-22T15:05:54.107Z,18.55
2022-10-22T15:08:56.870Z,18.85
2022-10-22T15:11:58.918Z,19.40
2022-10-22T15:15:01.058Z,18.63
2022-10-22T15:18:02.962Z,18.75
2022-10-22T15:21:08.141Z,19.83
2022-10-22T15:24:10.053Z,21.13
2022-10-22T15:27:15.521Z,19.10
2022-10-22T15:30:17.711Z,22.10
2022-10-22T15:33:19.872Z,22.13
2022-10-22T15:36:21.795Z,24.05
2022-10-22T15:39:24.215Z,21.73
2022-10-22T15:42:26.169Z,21.25
2022-10-22T15:45:28.328Z,24.42
2022-10-22T15:48:30.612Z,22.23
2022-10-22T15:51:32.875Z,21.00
2022-10-22T15:54:35.100Z,20.88
2022-10-22T15:57:38.580Z,23.17
2022-10-22T16:00:42.308Z,23.35
2022-10-22T16:03:48.328Z,21.98
2022-10-22T16:06:53.028Z,23.55
2022-10-22T16:09:56.632Z,26.55
2022-10-22T16:12:58.884Z,25.10
2022-10-22T16:16:06.106Z,26.20
2022-10-22T16:19:09.268Z,31.20
2022-10-22T16:22:13.967Z,27.90
2022-10-22T16:25:16.441Z,23.67
2022-10-22T16:28:18.787Z,26.45
2022-10-22T16:31:20.979Z,27.77
2022-10-22T16:34:23.060Z,22.90
2022-10-22T16:37:29.441Z,24.92
2022-10-22T16:40:33.747Z,26.75
2022-10-22T16:43:35.862Z,26.90
2022-10-22T16:46:38.620Z,32.13
2022-10-22T16:49:40.627Z,26.40
2022-10-22T16:52:42.745Z,26.10
2022-10-22T16:55:44.669Z,29.60
2022-10-22T16:58:49.116Z,27.25
2022-10-22T17:01:51.185Z,26.63
2022-10-22T17:04:53.322Z,26.83
2022-10-22T17:07:55.289Z,29.20
2022-10-22T17:10:57.912Z,25.02
2022-10-22T17:13:59.916Z,29.42
2022-10-22T17:17:02.250Z,29.65
2022-10-22T17:20:04.472Z,29.58
2022-10-22T17:23:06.644Z,28.50
2022-10-22T17:26:17.926Z,27.92
2022-10-22T17:29:21.943Z,32.35
2022-10-22T17:32:23.872Z,33.88
2022-10-22T17:38:32.796Z,28.70
2022-10-22T17:41:37.035Z,30.73
2022-10-22T17:44:38.969Z,27.65
2022-10-22T17:47:41.232Z,26.10
2022-10-22T17:50:48.159Z,27.15
2022-10-22T17:53:53.318Z,29.42
2022-10-22T17:56:55.233Z,29.27
2022-10-22T17:59:57.431Z,30.70
2022-10-22T18:03:01.088Z,30.83
2022-10-22T18:06:08.257Z,34.10
2022-10-22T18:09:17.262Z,33.50
2022-10-22T18:12:21.026Z,31.40
2022-10-22T18:15:22.984Z,36.30
2022-10-22T18:18:25.293Z,33.08
2022-10-22T18:21:30.070Z,33.65
2022-10-22T18:24:32.129Z,30.90
2022-10-22T18:27:34.112Z,32.55
2022-10-22T18:30:56.288Z,36.40
2022-10-22T18:33:58.457Z,37.35
2022-10-22T18:37:00.746Z,36.67
2022-10-22T18:40:05.203Z,31.73
2022-10-22T18:43:07.430Z,32.90
2022-10-22T18:46:09.412Z,32.45
2022-10-22T18:49:16.586Z,33.78
2022-10-22T18:52:18.494Z,30.95
2022-10-22T18:55:22.864Z,32.63
2022-10-22T18:58:24.820Z,29.20
2022-10-22T19:01:30.590Z,33.03
2022-10-22T19:04:37.142Z,33.85
2022-10-22T19:07:40.956Z,31.38
2022-10-22T19:10:48.395Z,33.65
2022-10-22T19:13:50.789Z,33.17
2022-10-22T19:16:52.897Z,32.67
2022-10-22T19:19:54.997Z,27.88
2022-10-22T19:22:57.604Z,26.63
2022-10-22T19:26:06.011Z,29.00
2022-10-22T19:29:08.459Z,26.58
2022-10-22T19:32:10.666Z,29.45
2022-10-22T19:35:12.850Z,23.88
2022-10-22T19:38:14.938Z,26.83
2022-10-22T19:41:19.934Z,29.25
2022-10-22T19:44:22.156Z,27.02
2022-10-22T19:47:24.132Z,31.70
2022-10-22T19:50:26.425Z,30.75
2022-10-22T19:53:32.810Z,28.95
2022-10-22T19:56:38.147Z,33.55
2022-10-22T19:59:40.132Z,38.72
2022-10-22T20:02:42.295Z,41.58
2022-10-22T20:05:44.352Z,45.97
2022-10-22T20:08:47.407Z,38.58
2022-10-22T20:11:51.342Z,40.17
2022-10-22T20:14:53.931Z,38.42
2022-10-22T20:18:06.067Z,37.85
2022-10-22T20:21:11.977Z,40.65
2022-10-22T20:24:13.946Z,36.50
2022-10-22T20:27:16.034Z,35.97
2022-10-22T20:30:20.144Z,38.47
2022-10-22T20:33:22.545Z,39.22
2022-10-22T20:36:25.325Z,40.28
2022-10-22T20:39:27.429Z,39.75
2022-10-22T20:42:29.376Z,37.20
2022-10-22T20:45:31.893Z,39.47
2022-10-22T20:48:33.873Z,40.20
2022-10-22T20:51:37.242Z,38.20
2022-10-22T20:54:42.433Z,44.95
2022-10-22T20:57:44.760Z,41.13
2022-10-22T21:00:47.883Z,46.13
2022-10-22T21:03:51.236Z,44.30
2022-10-22T21:06:53.633Z,42.33
2022-10-22T21:09:55.724Z,38.53
2022-10-22T21:12:57.934Z,36.47
2022-10-22T21:16:00.043Z,35.03
2022-10-22T21:19:02.032Z,42.78
2022-10-22T21:22:04.103Z,39.70
2022-10-22T21:25:06.483Z,34.87
2022-10-22T21:28:08.587Z,39.17
2022-10-22T21:31:18.608Z,36.17
2022-10-22T21:34:21.305Z,36.87
2022-10-22T21:37:23.286Z,36.33
2022-10-22T21:40:27.528Z,35.47
2022-10-22T21:43:29.398Z,34.08
2022-10-22T21:46:34.916Z,36.65
2022-10-22T21:49:41.129Z,36.97
2022-10-22T21:52:43.281Z,35.08
2022-10-22T21:55:45.261Z,43.70
2022-10-22T21:58:48.304Z,42.22
2022-10-22T22:01:50.166Z,42.15
2022-10-22T22:04:54.801Z,44.25
2022-10-22T22:07:56.825Z,41.20
2022-10-22T22:11:28.662Z,44.65
2022-10-22T22:14:33.142Z,56.08
2022-10-22T22:17:36.707Z,49.30
2022-10-22T22:20:38.651Z,37.50
2022-10-22T22:23:44.240Z,36.10
2022-10-22T22:26:46.125Z,41.17
2022-10-22T22:29:48.152Z,34.92
2022-10-22T22:32:50.063Z,38.13
2022-10-22T22:35:57.933Z,35.63
2022-10-22T22:38:59.906Z,31.63
2022-10-22T22:42:02.136Z,30.08
2022-10-22T22:45:04.845Z,28.50
2022-10-22T22:48:08.074Z,25.65
2022-10-22T22:51:11.314Z,25.70
2022-10-22T22:54:13.518Z,18.85
2022-10-22T22:57:15.686Z,22.85
2022-10-22T23:00:17.940Z,19.40
2022-10-22T23:03:19.966Z,21.73
2022-10-22T23:06:23.003Z,21.65
2022-10-22T23:09:25.012Z,22.90
2022-10-22T23:12:27.097Z,22.73
2022-10-22T23:15:28.971Z,21.50
2022-10-22T23:18:31.100Z,24.00
2022-10-22T23:21:35.971Z,23.70
2022-10-22T23:24:38.235Z,25.05
2022-10-22T23:27:40.271Z,23.35
2022-10-22T23:30:44.487Z,24.35
2022-10-22T23:33:46.538Z,23.55
2022-10-22T23:36:48.976Z,30.08
2022-10-22T23:39:50.899Z,29.35
2022-10-22T23:42:52.972Z,25.90
2022-10-22T23:45:55.181Z,26.77
2022-10-22T23:48:57.358Z,25.77
2022-10-22T23:51:59.256Z,24.45
2022-10-22T23:55:01.316Z,28.70
2022-10-22T23:58:03.423Z,28.15
